createdAt,value
2018-06-04T00:02:23.180Z,13.80
2018-06-04T00:04:51.660Z,13.80
2018-06-04T00:07:20.075Z,13.70
2018-06-04T00:09:48.588Z,13.70
2018-06-04T00:12:16.994Z,13.70
2018-06-04T00:14:45.512Z,13.60
2018-06-04T00:17:13.981Z,13.60
2018-06-04T00:19:42.580Z,13.60
2018-06-04T00:22:11.080Z,13.60
2018-06-04T00:24:39.473Z,13.50
2018-06-04T00:27:07.883Z,13.40
2018-06-04T00:29:36.461Z,13.40
2018-06-04T00:32:04.936Z,13.40
2018-06-04T00:34:33.533Z,13.50
2018-06-04T00:37:02.008Z,13.40
2018-06-04T00:39:30.451Z,13.40
2018-06-04T00:41:58.919Z,13.40
2018-06-04T00:44:27.423Z,13.30
2018-06-04T00:46:55.930Z,13.30
2018-06-04T00:49:24.393Z,13.40
2018-06-04T00:51:52.885Z,13.30
2018-06-04T00:54:21.301Z,13.30
2018-06-04T00:56:49.716Z,13.30
2018-06-04T00:59:18.160Z,13.10
2018-06-04T01:01:46.755Z,13.10
2018-06-04T01:04:15.228Z,13.10
2018-06-04T01:06:43.645Z,13.00
2018-06-04T01:09:12.338Z,13.00
2018-06-04T01:11:40.803Z,12.90
2018-06-04T01:14:09.222Z,13.00
2018-06-04T01:16:37.758Z,13.00
2018-06-04T01:19:06.263Z,12.90
2018-06-04T01:21:34.742Z,12.90
2018-06-04T01:24:03.146Z,12.90
2018-06-04T01:26:31.542Z,12.90
2018-06-04T01:29:00.075Z,12.90
2018-06-04T01:31:28.580Z,12.90
2018-06-04T01:33:57.171Z,12.90
2018-06-04T01:36:25.668Z,12.80
2018-06-04T01:38:54.143Z,12.80
2018-06-04T01:41:22.695Z,12.80
2018-06-04T01:43:51.419Z,12.70
2018-06-04T01:46:19.829Z,12.70
2018-06-04T01:48:48.232Z,12.70
2018-06-04T01:51:17.427Z,12.70
2018-06-04T01:53:45.940Z,12.70
2018-06-04T01:56:14.421Z,12.60
2018-06-04T01:58:42.879Z,12.60
2018-06-04T02:01:11.326Z,12.50
2018-06-04T02:03:39.784Z,12.40
2018-06-04T02:06:08.237Z,12.50
2018-06-04T02:08:36.619Z,12.50
2018-06-04T02:11:05.032Z,12.50
2018-06-04T02:13:33.438Z,12.40
2018-06-04T02:16:01.983Z,12.40
2018-06-04T02:18:30.575Z,12.40
2018-06-04T02:20:59.256Z,12.40
2018-06-04T02:23:27.715Z,12.30
2018-06-04T02:25:56.146Z,12.30
2018-06-04T02:28:24.802Z,12.30
2018-06-04T02:30:53.223Z,12.30
2018-06-04T02:33:21.697Z,12.20
2018-06-04T02:35:50.204Z,12.20
2018-06-04T02:38:18.697Z,12.20
2018-06-04T02:40:47.180Z,12.10
2018-06-04T02:43:15.694Z,12.10
2018-06-04T02:45:44.164Z,12.10
2018-06-04T02:48:12.597Z,12.10
2018-06-04T02:53:09.120Z,12.20
2018-06-04T02:55:37.686Z,12.10
2018-06-04T02:58:06.156Z,12.00
2018-06-04T03:00:34.560Z,12.00
2018-06-04T03:03:02.952Z,11.90
2018-06-04T03:05:31.370Z,11.90
2018-06-04T03:07:59.889Z,11.80
2018-06-04T03:10:28.386Z,11.70
2018-06-04T03:12:56.823Z,11.70
2018-06-04T03:15:25.312Z,11.70
2018-06-04T03:17:53.804Z,11.70
2018-06-04T03:20:22.229Z,11.60
2018-06-04T03:22:50.723Z,11.60
2018-06-04T03:25:19.142Z,11.50
2018-06-04T03:27:47.916Z,11.50
2018-06-04T03:30:16.342Z,11.60
2018-06-04T03:32:44.751Z,11.70
2018-06-04T03:35:13.167Z,11.80
2018-06-04T03:37:41.586Z,11.80
2018-06-04T03:40:10.019Z,12.00
2018-06-04T03:42:38.550Z,11.80
2018-06-04T03:45:06.977Z,11.80
2018-06-04T03:47:35.473Z,11.70
2018-06-04T03:50:04.035Z,11.70
2018-06-04T03:52:32.590Z,11.70
2018-06-04T03:55:01.273Z,11.70
2018-06-04T03:57:30.556Z,11.80
2018-06-04T03:59:59.059Z,11.80
2018-06-04T04:02:27.615Z,11.80
2018-06-04T04:04:56.054Z,11.90
2018-06-04T04:07:24.536Z,11.80
2018-06-04T04:09:53.283Z,11.80
2018-06-04T04:12:21.720Z,11.80
2018-06-04T04:14:50.340Z,11.80
2018-06-04T04:17:18.827Z,11.90
2018-06-04T04:19:47.251Z,12.00
2018-06-04T04:22:15.799Z,12.10
2018-06-04T04:24:44.329Z,12.10
2018-06-04T04:27:12.768Z,12.10
2018-06-04T04:29:41.207Z,12.20
2018-06-04T04:32:09.897Z,12.10
2018-06-04T04:34:38.356Z,12.20
2018-06-04T04:37:06.840Z,12.20
2018-06-04T04:39:35.320Z,12.20
2018-06-04T04:42:03.820Z,12.30
2018-06-04T04:44:32.425Z,12.40
2018-06-04T04:47:00.864Z,12.40
2018-06-04T04:49:29.391Z,12.50
2018-06-04T04:51:57.868Z,12.60
2018-06-04T04:54:26.526Z,12.70
2018-06-04T04:56:55.053Z,12.90
2018-06-04T04:59:23.474Z,12.90
2018-06-04T05:01:51.967Z,13.00
2018-06-04T05:04:20.394Z,13.20
2018-06-04T05:06:48.907Z,13.30
2018-06-04T05:09:17.356Z,13.30
2018-06-04T05:11:45.956Z,13.70
2018-06-04T05:16:42.727Z,14.00
2018-06-04T05:19:11.176Z,14.20
2018-06-04T05:21:39.695Z,14.30
2018-06-04T05:24:08.210Z,14.50
2018-06-04T05:26:36.611Z,14.70
2018-06-04T05:29:05.134Z,15.10
2018-06-04T05:31:33.546Z,15.20
2018-06-04T05:34:01.959Z,15.50
2018-06-04T05:36:30.479Z,15.60
2018-06-04T05:38:58.908Z,15.60
2018-06-04T05:41:27.592Z,15.60
2018-06-04T05:43:56.039Z,15.70
2018-06-04T05:46:24.617Z,15.80
2018-06-04T05:48:53.168Z,15.90
2018-06-04T05:51:21.803Z,16.10
2018-06-04T05:53:50.201Z,16.20
2018-06-04T05:56:18.896Z,16.30
2018-06-04T05:58:47.413Z,16.40
2018-06-04T06:01:15.984Z,16.50
2018-06-04T06:03:44.463Z,16.60
2018-06-04T06:06:12.953Z,17.00
2018-06-04T06:08:41.416Z,17.60
2018-06-04T06:11:09.921Z,17.90
2018-06-04T06:13:38.468Z,17.90
2018-06-04T06:16:06.896Z,17.80
2018-06-04T06:18:35.331Z,17.80
2018-06-04T06:21:03.951Z,17.80
2018-06-04T06:23:32.399Z,17.90
2018-06-04T06:26:00.923Z,18.00
2018-06-04T06:28:29.485Z,18.00
2018-06-04T06:30:58.050Z,18.20
2018-06-04T06:33:26.508Z,18.30
2018-06-04T06:35:55.016Z,18.30
2018-06-04T06:38:23.474Z,18.40
2018-06-04T06:40:52.170Z,18.60
2018-06-04T06:43:20.638Z,18.70
2018-06-04T06:45:49.092Z,18.70
2018-06-04T06:48:17.629Z,18.90
2018-06-04T06:50:46.208Z,19.10
2018-06-04T06:53:14.680Z,19.20
2018-06-04T06:55:43.224Z,19.40
2018-06-04T06:58:11.695Z,19.50
2018-06-04T07:00:40.176Z,19.70
2018-06-04T07:03:08.665Z,19.80
2018-06-04T07:05:37.122Z,19.90
2018-06-04T07:08:05.711Z,20.10
2018-06-04T07:10:34.340Z,20.20
2018-06-04T07:13:02.867Z,20.40
2018-06-04T07:15:31.477Z,20.60
2018-06-04T07:18:00.115Z,20.70
2018-06-04T07:20:28.599Z,20.90
2018-06-04T07:22:57.164Z,21.10
2018-06-04T07:25:25.607Z,21.20
2018-06-04T07:27:54.291Z,21.30
2018-06-04T07:30:22.862Z,21.50
2018-06-04T07:32:51.313Z,21.70
2018-06-04T07:35:19.819Z,21.60
2018-06-04T07:37:48.366Z,21.80
2018-06-04T07:40:16.852Z,22.00
2018-06-04T07:42:45.532Z,22.20
2018-06-04T07:45:14.028Z,22.40
2018-06-04T07:50:15.764Z,22.80
2018-06-04T07:52:44.586Z,22.80
2018-06-04T07:55:13.012Z,22.80
2018-06-04T07:57:41.434Z,23.00
2018-06-04T08:00:10.214Z,23.00
2018-06-04T08:02:38.764Z,23.10
2018-06-04T08:05:07.226Z,23.40
2018-06-04T08:07:35.784Z,23.40
2018-06-04T08:10:04.759Z,23.60
2018-06-04T08:12:33.200Z,23.80
2018-06-04T08:15:01.626Z,24.00
2018-06-04T08:17:30.109Z,24.20
2018-06-04T08:22:26.863Z,24.30
2018-06-04T08:24:55.364Z,24.20
2018-06-04T08:27:23.884Z,24.40
2018-06-04T08:29:52.327Z,24.60
2018-06-04T08:32:20.882Z,24.60
2018-06-04T08:34:49.378Z,24.50
2018-06-04T08:37:17.846Z,24.70
2018-06-04T08:39:46.392Z,24.70
2018-06-04T08:42:14.915Z,24.90
2018-06-04T08:44:43.511Z,25.00
2018-06-04T08:47:11.955Z,25.20
2018-06-04T08:49:40.460Z,25.20
2018-06-04T08:52:08.983Z,25.40
2018-06-04T08:54:37.530Z,25.50
2018-06-04T08:57:06.025Z,25.70
2018-06-04T08:59:34.467Z,25.70
2018-06-04T09:02:03.073Z,25.80
2018-06-04T09:04:31.610Z,25.80
2018-06-04T09:07:00.060Z,25.60
2018-06-04T09:09:28.539Z,25.70
2018-06-04T09:11:56.973Z,25.80
2018-06-04T09:14:25.479Z,26.10
2018-06-04T09:16:54.679Z,26.10
2018-06-04T09:19:23.205Z,26.30
2018-06-04T09:21:51.640Z,26.50
2018-06-04T09:24:20.175Z,26.40
2018-06-04T09:26:48.598Z,26.50
2018-06-04T09:29:17.122Z,26.60
2018-06-04T09:31:45.663Z,26.60
2018-06-04T09:34:14.123Z,26.70
2018-06-04T09:36:42.660Z,26.80
2018-06-04T09:39:11.237Z,26.70
2018-06-04T09:41:39.675Z,26.70
2018-06-04T09:44:08.212Z,26.60
2018-06-04T09:46:36.668Z,26.60
2018-06-04T09:49:05.585Z,26.80
2018-06-04T09:51:34.192Z,27.00
2018-06-04T09:54:02.640Z,27.30
2018-06-04T09:56:31.087Z,27.40
2018-06-04T09:58:59.532Z,27.40
2018-06-04T10:01:27.958Z,27.40
2018-06-04T10:03:56.419Z,27.60
2018-06-04T10:06:24.876Z,27.60
2018-06-04T10:08:53.356Z,27.40
2018-06-04T10:11:21.851Z,27.50
2018-06-04T10:13:50.380Z,27.70
2018-06-04T10:16:18.943Z,27.70
2018-06-04T10:18:47.439Z,27.60
2018-06-04T10:21:15.995Z,27.80
2018-06-04T10:23:44.417Z,28.00
2018-06-04T10:26:12.975Z,28.10
2018-06-04T10:28:41.423Z,28.10
2018-06-04T10:31:09.856Z,28.10
2018-06-04T10:33:38.511Z,28.30
2018-06-04T10:36:06.919Z,28.30
2018-06-04T10:38:35.500Z,28.50
2018-06-04T10:41:04.314Z,28.60
2018-06-04T10:43:32.822Z,28.70
2018-06-04T10:46:01.517Z,28.80
2018-06-04T10:48:30.400Z,29.00
2018-06-04T10:50:59.004Z,29.00
2018-06-04T10:53:27.435Z,28.90
2018-06-04T10:55:55.890Z,29.10
2018-06-04T10:58:24.433Z,28.80
2018-06-04T11:00:53.059Z,28.50
2018-06-04T11:03:21.506Z,28.10
2018-06-04T11:05:50.201Z,28.10
2018-06-04T11:08:18.655Z,28.60
2018-06-04T11:10:47.140Z,28.80
2018-06-04T11:13:15.604Z,29.20
2018-06-04T11:15:44.076Z,28.90
2018-06-04T11:18:12.481Z,28.90
2018-06-04T11:20:40.987Z,29.30
2018-06-04T11:23:09.434Z,29.20
2018-06-04T11:25:38.016Z,29.40
2018-06-04T11:28:06.548Z,29.60
2018-06-04T11:30:34.984Z,29.80
2018-06-04T11:33:03.392Z,30.40
2018-06-04T11:35:31.888Z,30.80
2018-06-04T11:38:00.407Z,31.20
2018-06-04T11:40:28.991Z,31.20
2018-06-04T11:42:57.456Z,30.40
2018-06-04T11:45:26.005Z,30.40
2018-06-04T11:47:54.690Z,30.00
2018-06-04T11:50:23.166Z,30.10
2018-06-04T11:52:51.648Z,29.90
2018-06-04T11:55:20.103Z,30.10
2018-06-04T11:57:48.535Z,30.20
2018-06-04T12:00:17.028Z,30.20
2018-06-04T12:02:45.482Z,30.30
2018-06-04T12:05:13.956Z,30.30
2018-06-04T12:07:42.398Z,30.70
2018-06-04T12:10:10.836Z,30.60
2018-06-04T12:12:39.377Z,30.90
2018-06-04T12:15:07.797Z,31.10
2018-06-04T12:17:36.518Z,31.70
2018-06-04T12:20:05.175Z,32.00
2018-06-04T12:22:33.877Z,31.70
2018-06-04T12:25:02.386Z,31.50
2018-06-04T12:27:30.884Z,30.60
2018-06-04T12:29:59.365Z,29.60
2018-06-04T12:32:27.837Z,29.00
2018-06-04T12:34:56.347Z,28.50
2018-06-04T12:37:24.956Z,29.00
2018-06-04T12:39:53.489Z,29.50
2018-06-04T12:42:22.147Z,29.80
2018-06-04T12:44:50.716Z,30.00
2018-06-04T12:47:19.323Z,29.90
2018-06-04T12:49:47.812Z,30.00
2018-06-04T12:52:16.243Z,30.30
2018-06-04T12:54:44.702Z,30.90
2018-06-04T12:57:13.210Z,31.40
2018-06-04T12:59:41.848Z,31.10
2018-06-04T13:02:10.345Z,31.20
2018-06-04T13:04:38.840Z,31.20
2018-06-04T13:07:07.516Z,31.20
2018-06-04T13:09:35.979Z,31.20
2018-06-04T13:12:04.478Z,31.50
2018-06-04T13:14:33.067Z,30.90
2018-06-04T13:17:01.554Z,30.60
2018-06-04T13:19:30.050Z,30.60
2018-06-04T13:21:58.539Z,30.50
2018-06-04T13:24:27.042Z,30.60
2018-06-04T13:26:55.564Z,30.90
2018-06-04T13:29:24.231Z,30.80
2018-06-04T13:31:52.829Z,30.90
2018-06-04T13:34:21.279Z,31.10
2018-06-04T13:36:49.712Z,30.80
2018-06-04T13:41:46.336Z,30.50
2018-06-04T13:44:14.919Z,31.20
2018-06-04T13:46:43.487Z,31.40
2018-06-04T13:49:12.002Z,31.80
2018-06-04T13:51:40.744Z,32.10
2018-06-04T13:54:09.264Z,32.70
2018-06-04T13:56:37.865Z,33.20
2018-06-04T14:01:34.563Z,34.20
2018-06-04T14:04:02.994Z,34.30
2018-06-04T14:08:59.645Z,34.40
2018-06-04T14:11:28.230Z,34.30
2018-06-04T14:13:56.668Z,34.50
2018-06-04T14:16:25.148Z,35.10
2018-06-04T14:18:53.607Z,36.40
2018-06-04T14:21:22.056Z,36.60
2018-06-04T14:23:50.736Z,35.70
2018-06-04T14:26:19.183Z,36.40
2018-06-04T14:28:47.765Z,36.10
2018-06-04T14:31:16.472Z,35.80
2018-06-04T14:33:45.070Z,35.70
2018-06-04T14:36:13.464Z,36.00
2018-06-04T14:38:41.992Z,36.40
2018-06-04T14:41:10.571Z,36.30
2018-06-04T14:43:39.153Z,36.70
2018-06-04T14:46:07.728Z,37.40
2018-06-04T14:48:36.234Z,37.90
2018-06-04T14:51:04.707Z,38.10
2018-06-04T14:53:33.296Z,37.40
2018-06-04T14:56:01.892Z,37.40
2018-06-04T14:58:30.351Z,36.70
2018-06-04T15:00:58.810Z,36.60
2018-06-04T15:03:27.282Z,36.10
2018-06-04T15:05:55.844Z,36.00
2018-06-04T15:08:24.494Z,36.60
2018-06-04T15:13:21.190Z,38.20
2018-06-04T15:15:49.740Z,38.40
2018-06-04T15:18:18.460Z,38.80
2018-06-04T15:20:47.267Z,37.40
2018-06-04T15:23:15.923Z,36.60
2018-06-04T15:25:44.684Z,36.80
2018-06-04T15:28:13.291Z,36.90
2018-06-04T15:30:41.759Z,37.90
2018-06-04T15:33:10.408Z,38.00
2018-06-04T15:35:38.999Z,38.20
2018-06-04T15:38:07.545Z,37.20
2018-06-04T15:40:36.302Z,36.60
2018-06-04T15:43:04.911Z,37.20
2018-06-04T15:45:33.392Z,37.50
2018-06-04T15:48:01.972Z,37.80
2018-06-04T15:50:30.528Z,37.50
2018-06-04T15:52:59.054Z,37.30
2018-06-04T15:57:56.182Z,37.70
2018-06-04T16:00:24.652Z,37.70
2018-06-04T16:02:53.125Z,37.50
2018-06-04T16:05:21.767Z,37.70
2018-06-04T16:07:50.227Z,37.60
2018-06-04T16:10:18.911Z,37.00
2018-06-04T16:12:47.463Z,37.00
2018-06-04T16:15:16.746Z,36.40
2018-06-04T16:17:45.270Z,36.80
2018-06-04T16:20:13.802Z,36.70
2018-06-04T16:22:42.334Z,36.90
2018-06-04T16:25:10.887Z,37.20
2018-06-04T16:27:39.382Z,37.20
2018-06-04T16:30:07.892Z,36.80
2018-06-04T16:32:36.571Z,36.20
2018-06-04T16:35:05.081Z,36.10
2018-06-04T16:37:33.780Z,36.80
2018-06-04T16:40:02.274Z,37.00
2018-06-04T16:42:30.784Z,36.70
2018-06-04T16:44:59.257Z,36.40
2018-06-04T16:47:27.692Z,36.50
2018-06-04T16:49:56.448Z,36.20
2018-06-04T16:52:25.254Z,36.10
2018-06-04T16:54:53.777Z,36.00
2018-06-04T16:57:22.633Z,36.60
2018-06-04T16:59:51.135Z,36.50
2018-06-04T17:02:19.599Z,37.10
2018-06-04T17:04:48.109Z,37.30
2018-06-04T17:07:16.778Z,36.70
2018-06-04T17:09:45.455Z,37.20
2018-06-04T17:12:13.874Z,37.10
2018-06-04T17:14:42.367Z,36.70
2018-06-04T17:17:10.857Z,36.00
2018-06-04T17:19:39.419Z,35.60
2018-06-04T17:24:36.223Z,35.40
2018-06-04T17:27:04.977Z,35.40
2018-06-04T17:29:33.587Z,35.50
2018-06-04T17:32:02.079Z,35.40
2018-06-04T17:34:30.555Z,35.60
2018-06-04T17:36:59.296Z,35.70
2018-06-04T17:39:27.759Z,35.00
2018-06-04T17:41:56.422Z,34.80
2018-06-04T17:44:25.188Z,34.70
2018-06-04T17:46:53.655Z,34.60
2018-06-04T17:49:22.170Z,34.50
2018-06-04T17:51:50.744Z,33.90
2018-06-04T17:54:19.268Z,33.80
2018-06-04T17:56:47.773Z,32.80
2018-06-04T17:59:18.656Z,32.70
2018-06-04T18:01:47.247Z,31.80
2018-06-04T18:04:15.879Z,30.80
2018-06-04T18:06:44.430Z,29.90
2018-06-04T18:09:13.001Z,29.30
2018-06-04T18:11:41.470Z,28.80
2018-06-04T18:14:10.098Z,28.60
2018-06-04T18:16:38.789Z,28.10
2018-06-04T18:19:07.374Z,27.80
2018-06-04T18:21:35.803Z,27.40
2018-06-04T18:24:04.480Z,27.10
2018-06-04T18:26:33.080Z,26.80
2018-06-04T18:31:29.993Z,26.80
2018-06-04T18:33:58.815Z,26.50
2018-06-04T18:36:27.364Z,26.20
2018-06-04T18:38:55.941Z,25.70
2018-06-04T18:43:52.795Z,24.90
2018-06-04T18:46:21.374Z,24.60
2018-06-04T18:48:49.878Z,24.20
2018-06-04T18:51:18.566Z,23.90
2018-06-04T18:53:47.237Z,23.60
2018-06-04T18:56:15.742Z,23.20
2018-06-04T18:58:44.435Z,22.80
2018-06-04T19:01:13.053Z,22.50
2018-06-04T19:03:41.616Z,22.20
2018-06-04T19:06:10.172Z,22.10
2018-06-04T19:08:38.866Z,21.80
2018-06-04T19:11:07.380Z,21.70
2018-06-04T19:13:35.908Z,21.50
2018-06-04T19:16:04.404Z,21.40
2018-06-04T19:18:32.984Z,21.30
2018-06-04T19:21:01.473Z,21.20
2018-06-04T19:23:30.064Z,21.00
2018-06-04T19:25:58.692Z,20.90
2018-06-04T19:28:27.289Z,20.80
2018-06-04T19:30:55.896Z,20.70
2018-06-04T19:33:24.475Z,20.70
2018-06-04T19:35:53.022Z,20.70
2018-06-04T19:38:21.575Z,20.70
2018-06-04T19:40:50.141Z,20.70
2018-06-04T19:43:18.827Z,20.70
2018-06-04T19:45:48.244Z,20.60
2018-06-04T19:48:16.872Z,20.50
2018-06-04T19:50:45.516Z,20.30
2018-06-04T19:53:14.133Z,20.20
2018-06-04T19:55:43.075Z,20.00
2018-06-04T20:05:36.986Z,19.50
2018-06-04T20:08:05.634Z,19.40
2018-06-04T20:10:34.155Z,19.30
2018-06-04T20:13:02.661Z,19.10
2018-06-04T20:15:31.186Z,19.00
2018-06-04T20:17:59.862Z,18.90
2018-06-04T20:20:28.595Z,18.80
2018-06-04T20:22:57.282Z,18.60
2018-06-04T20:25:25.818Z,18.50
2018-06-04T20:27:54.345Z,18.50
2018-06-04T20:30:22.866Z,18.40
2018-06-04T20:32:51.611Z,18.30
2018-06-04T20:35:20.100Z,18.30
2018-06-04T20:37:48.742Z,18.20
2018-06-04T20:40:17.368Z,18.10
2018-06-04T20:42:46.021Z,18.00
2018-06-04T20:45:14.533Z,17.90
2018-06-04T20:47:43.218Z,17.80
2018-06-04T20:50:11.718Z,17.70
2018-06-04T20:52:40.276Z,17.60
2018-06-04T20:55:08.747Z,17.60
2018-06-04T20:57:37.487Z,17.50
2018-06-04T21:00:06.060Z,17.50
2018-06-04T21:02:34.541Z,17.50
2018-06-04T21:05:03.047Z,17.50
2018-06-04T21:07:31.731Z,17.40
2018-06-04T21:10:00.303Z,17.30
2018-06-04T21:12:28.855Z,17.30
2018-06-04T21:14:57.372Z,17.20
2018-06-04T21:17:25.996Z,17.20
2018-06-04T21:19:54.724Z,17.20
2018-06-04T21:22:23.410Z,17.10
2018-06-04T21:24:51.967Z,17.10
2018-06-04T21:27:20.453Z,17.00
2018-06-04T21:29:48.985Z,17.00
2018-06-04T21:32:17.577Z,16.90
2018-06-04T21:34:46.094Z,16.90
2018-06-04T21:37:14.775Z,16.80
2018-06-04T21:39:43.360Z,16.70
2018-06-04T21:42:12.283Z,16.70
2018-06-04T21:44:40.832Z,16.50
2018-06-04T21:47:09.498Z,16.40
2018-06-04T21:49:38.299Z,16.40
2018-06-04T21:52:06.889Z,16.40
2018-06-04T21:54:35.422Z,16.40
2018-06-04T21:57:04.792Z,16.40
2018-06-04T21:59:33.374Z,16.30
2018-06-04T22:02:01.855Z,16.20
2018-06-04T22:04:30.439Z,16.20
2018-06-04T22:06:59.767Z,16.10
2018-06-04T22:09:28.199Z,16.10
2018-06-04T22:11:56.727Z,16.00
2018-06-04T22:14:25.304Z,15.90
2018-06-04T22:16:53.863Z,15.80
2018-06-04T22:19:22.283Z,15.80
2018-06-04T22:21:50.731Z,15.80
2018-06-04T22:24:19.152Z,15.70
2018-06-04T22:26:47.715Z,15.70
2018-06-04T22:29:16.151Z,15.70
2018-06-04T22:31:44.679Z,15.60
2018-06-04T22:34:13.233Z,15.60
2018-06-04T22:36:41.767Z,15.60
2018-06-04T22:39:10.235Z,15.60
2018-06-04T22:41:38.905Z,15.50
2018-06-04T22:44:07.319Z,15.40
2018-06-04T22:46:35.788Z,15.30
2018-06-04T22:49:06.207Z,15.30
2018-06-04T22:51:35.529Z,15.30
2018-06-04T22:54:04.018Z,15.20
2018-06-04T22:56:32.609Z,15.10
2018-06-04T22:59:01.100Z,15.20
2018-06-04T23:01:29.635Z,15.10
2018-06-04T23:03:58.072Z,15.10
2018-06-04T23:06:26.595Z,15.00
2018-06-04T23:08:55.292Z,14.90
2018-06-04T23:11:23.767Z,14.90
2018-06-04T23:13:52.193Z,14.90
2018-06-04T23:16:20.851Z,14.70
2018-06-04T23:18:49.423Z,14.50
2018-06-04T23:21:17.892Z,14.60
2018-06-04T23:23:46.460Z,14.60
2018-06-04T23:26:15.312Z,14.60
2018-06-04T23:28:43.875Z,14.60
2018-06-04T23:31:12.293Z,14.50
2018-06-04T23:33:40.920Z,14.40
2018-06-04T23:36:09.566Z,14.40
2018-06-04T23:38:38.488Z,14.40
2018-06-04T23:41:06.928Z,14.40
2018-06-04T23:43:35.332Z,14.50
2018-06-04T23:46:03.797Z,14.50
2018-06-04T23:48:32.429Z,14.50
2018-06-04T23:51:00.921Z,14.40
2018-06-04T23:53:29.335Z,14.30
2018-06-04T23:55:57.843Z,14.30
2018-06-04T23:58:26.298Z,14.20
